This is the latest recevied weather packets stored in our database for station/object HS1AL-1. If no packets are shown the sender has not sent any weather packets the latest 10 day(s).
| Time | Temp. | Humidity | Pressure | Rain* | Wind** | Luminosity | Snow |
|---|---|---|---|---|---|---|---|
| 1777721811 | 38.89° C | 33% | 1004 hPa | - | - | 0 W/m² | - |
| 1777720877 | 40° C | 33% | 1004 hPa | - | - | 0 W/m² | - |
| 1777719949 | 39.44° C | 37% | 1003 hPa | - | - | 0 W/m² | - |
| 1777719018 | 40.56° C | 35% | 1003 hPa | - | - | 0 W/m² | - |
| 1777718086 | 40.56° C | 35% | 1003 hPa | - | - | 0 W/m² | - |
| 1777717159 | 40.56° C | 35% | 1003 hPa | - | - | 0 W/m² | - |
| 1777716233 | 40.56° C | 35% | 1003 hPa | - | - | 0 W/m² | - |
| 1777715306 | 40.56° C | 35% | 1003 hPa | - | - | 0 W/m² | - |
| 1777714378 | 40° C | 36% | 1003 hPa | - | - | 0 W/m² | - |
| 1777713450 | 40.56° C | 35% | 1003 hPa | - | - | 0 W/m² | - |
| 1777712606 | 40.56° C | 35% | 1003 hPa | - | - | 0 W/m² | - |
| 1777711679 | 40° C | 36% | 1003 hPa | - | - | 0 W/m² | - |
| 1777710751 | 40° C | 36% | 1003 hPa | - | - | 0 W/m² | - |
| 1777709824 | 40° C | 37% | 1003 hPa | - | - | 0 W/m² | - |
| 1777708896 | 40° C | 37% | 1004 hPa | - | - | 0 W/m² | - |
| 1777707968 | 39.44° C | 38% | 1004 hPa | - | - | 0 W/m² | - |
| 1777707037 | 39.44° C | 39% | 1004 hPa | - | - | 0 W/m² | - |
| 1777706107 | 39.44° C | 39% | 1005 hPa | - | - | 0 W/m² | - |
| 1777705174 | 38.89° C | 41% | 1005 hPa | - | - | 0 W/m² | - |
| 1777704246 | 38.33° C | 42% | 1005 hPa | - | - | 0 W/m² | - |
| 1777703319 | 38.33° C | 40% | 1006 hPa | - | - | 0 W/m² | - |
| 1777702392 | 38.33° C | 42% | 1006 hPa | - | - | 0 W/m² | - |
| 1777701466 | 38.33° C | 43% | 1006 hPa | - | - | 0 W/m² | - |
| 1777700536 | 37.78° C | 44% | 1007 hPa | - | - | 0 W/m² | - |
| 1777699608 | 37.78° C | 44% | 1007 hPa | - | - | 0 W/m² | - |
* Rain since midnight (hover to see other rain measurements)
** Current wind speed in m/s (hover to see current wind gust speed)